sensor_id;sensor_type;location;lat;lon;timestamp;pressure;altitude;pressure_sealevel;temperature;humidity
41636;BME280;27623;51.966;4.602;2022-10-26T00:00:46;64590.00;;;12.62;100.00
41636;BME280;27623;51.966;4.602;2022-10-26T00:03:14;64599.50;;;12.59;100.00
41636;BME280;27623;51.966;4.602;2022-10-26T00:05:40;64550.75;;;12.57;100.00
41636;BME280;27623;51.966;4.602;2022-10-26T00:08:06;64610.28;;;12.67;100.00
41636;BME280;27623;51.966;4.602;2022-10-26T00:10:36;64585.00;;;12.86;100.00
41636;BME280;27623;51.966;4.602;2022-10-26T00:13:08;64610.78;;;12.74;100.00
41636;BME280;27623;51.966;4.602;2022-10-26T00:15:38;64588.50;;;12.70;100.00
41636;BME280;27623;51.966;4.602;2022-10-26T00:18:05;64578.31;;;12.63;100.00
41636;BME280;27623;51.966;4.602;2022-10-26T00:20:31;64538.56;;;12.43;100.00
41636;BME280;27623;51.966;4.602;2022-10-26T00:22:57;64548.03;;;12.54;100.00
41636;BME280;27623;51.966;4.602;2022-10-26T00:25:22;64591.28;;;12.66;100.00
41636;BME280;27623;51.966;4.602;2022-10-26T00:27:48;64575.34;;;12.80;100.00
41636;BME280;27623;51.966;4.602;2022-10-26T00:30:14;64593.66;;;12.63;100.00
41636;BME280;27623;51.966;4.602;2022-10-26T00:32:40;64583.06;;;12.58;100.00
41636;BME280;27623;51.966;4.602;2022-10-26T00:35:06;64580.88;;;12.63;100.00
41636;BME280;27623;51.966;4.602;2022-10-26T00:37:31;64590.56;;;12.63;100.00
41636;BME280;27623;51.966;4.602;2022-10-26T00:39:57;64580.34;;;12.49;100.00
41636;BME280;27623;51.966;4.602;2022-10-26T00:42:22;64551.53;;;12.46;100.00
41636;BME280;27623;51.966;4.602;2022-10-26T00:47:17;64563.38;;;12.54;100.00
41636;BME280;27623;51.966;4.602;2022-10-26T00:49:46;64578.16;;;12.54;100.00
41636;BME280;27623;51.966;4.602;2022-10-26T00:52:15;64588.56;;;12.49;100.00
41636;BME280;27623;51.966;4.602;2022-10-26T00:54:43;64541.31;;;12.46;100.00
41636;BME280;27623;51.966;4.602;2022-10-26T00:57:10;64566.34;;;12.31;100.00
41636;BME280;27623;51.966;4.602;2022-10-26T00:59:36;64544.06;;;12.34;100.00
41636;BME280;27623;51.966;4.602;2022-10-26T01:02:02;64543.16;;;12.35;100.00
41636;BME280;27623;51.966;4.602;2022-10-26T01:04:27;64599.00;;;12.45;100.00
41636;BME280;27623;51.966;4.602;2022-10-26T01:06:53;64569.38;;;12.60;100.00
41636;BME280;27623;51.966;4.602;2022-10-26T01:09:19;64547.31;;;12.51;100.00
41636;BME280;27623;51.966;4.602;2022-10-26T01:11:45;64586.53;;;12.64;100.00
41636;BME280;27623;51.966;4.602;2022-10-26T01:14:11;64554.22;;;12.62;100.00
41636;BME280;27623;51.966;4.602;2022-10-26T01:20:03;64572.84;;;12.58;100.00
41636;BME280;27623;51.966;4.602;2022-10-26T01:23:03;64568.09;;;12.56;100.00
41636;BME280;27623;51.966;4.602;2022-10-26T01:31:28;64569.75;;;12.51;100.00
41636;BME280;27623;51.966;4.602;2022-10-26T01:34:19;64594.16;;;12.71;100.00
41636;BME280;27623;51.966;4.602;2022-10-26T01:36:54;64575.03;;;12.60;100.00
41636;BME280;27623;51.966;4.602;2022-10-26T01:39:30;64556.69;;;12.31;100.00
41636;BME280;27623;51.966;4.602;2022-10-26T01:42:02;64561.22;;;12.45;100.00
41636;BME280;27623;51.966;4.602;2022-10-26T01:44:33;64532.19;;;12.39;100.00
41636;BME280;27623;51.966;4.602;2022-10-26T01:47:04;64553.19;;;12.33;100.00
41636;BME280;27623;51.966;4.602;2022-10-26T01:49:37;64538.78;;;12.31;100.00
41636;BME280;27623;51.966;4.602;2022-10-26T01:52:05;64529.16;;;12.25;100.00
41636;BME280;27623;51.966;4.602;2022-10-26T01:54:34;64524.03;;;12.25;100.00
41636;BME280;27623;51.966;4.602;2022-10-26T01:57:01;64563.78;;;12.31;100.00
41636;BME280;27623;51.966;4.602;2022-10-26T01:59:50;64549.16;;;12.41;100.00
41636;BME280;27623;51.966;4.602;2022-10-26T02:10:49;64492.31;;;12.10;100.00
41636;BME280;27623;51.966;4.602;2022-10-26T02:13:27;64530.25;;;12.19;100.00
41636;BME280;27623;51.966;4.602;2022-10-26T02:15:58;64561.28;;;12.10;100.00
41636;BME280;27623;51.966;4.602;2022-10-26T02:18:33;64542.84;;;12.09;100.00
41636;BME280;27623;51.966;4.602;2022-10-26T02:21:08;64487.38;;;12.12;100.00
41636;BME280;27623;51.966;4.602;2022-10-26T02:23:37;64557.06;;;12.22;100.00
41636;BME280;27623;51.966;4.602;2022-10-26T02:26:06;64543.16;;;12.28;100.00
41636;BME280;27623;51.966;4.602;2022-10-26T02:28:38;64563.19;;;12.52;100.00
41636;BME280;27623;51.966;4.602;2022-10-26T02:31:05;64595.13;;;12.55;100.00
41636;BME280;27623;51.966;4.602;2022-10-26T02:33:36;64576.88;;;12.57;100.00
41636;BME280;27623;51.966;4.602;2022-10-26T02:36:06;64596.94;;;12.59;100.00
41636;BME280;27623;51.966;4.602;2022-10-26T02:38:34;64593.09;;;12.63;100.00
41636;BME280;27623;51.966;4.602;2022-10-26T02:41:01;64562.28;;;12.53;100.00
41636;BME280;27623;51.966;4.602;2022-10-26T02:43:29;64568.84;;;12.52;100.00
41636;BME280;27623;51.966;4.602;2022-10-26T02:46:04;64602.19;;;12.83;100.00
41636;BME280;27623;51.966;4.602;2022-10-26T02:48:34;64619.75;;;12.71;100.00
41636;BME280;27623;51.966;4.602;2022-10-26T02:51:10;64606.22;;;12.68;100.00
41636;BME280;27623;51.966;4.602;2022-10-26T02:54:27;64613.53;;;12.70;100.00
41636;BME280;27623;51.966;4.602;2022-10-26T02:56:33;64567.97;;;12.47;100.00
41636;BME280;27623;51.966;4.602;2022-10-26T02:59:02;64585.09;;;12.58;100.00
41636;BME280;27623;51.966;4.602;2022-10-26T03:01:30;64580.91;;;12.49;100.00
41636;BME280;27623;51.966;4.602;2022-10-26T03:03:57;64547.47;;;12.61;100.00
41636;BME280;27623;51.966;4.602;2022-10-26T03:06:23;64591.25;;;12.73;100.00
41636;BME280;27623;51.966;4.602;2022-10-26T03:08:49;64604.44;;;12.64;100.00
41636;BME280;27623;51.966;4.602;2022-10-26T03:11:15;64593.47;;;12.61;100.00
41636;BME280;27623;51.966;4.602;2022-10-26T03:13:40;64574.84;;;12.58;100.00
41636;BME280;27623;51.966;4.602;2022-10-26T03:16:06;64561.91;;;12.48;100.00
41636;BME280;27623;51.966;4.602;2022-10-26T03:18:32;64600.81;;;12.49;100.00
41636;BME280;27623;51.966;4.602;2022-10-26T03:20:58;64557.91;;;12.49;100.00
41636;BME280;27623;51.966;4.602;2022-10-26T03:23:24;64528.75;;;12.34;100.00
41636;BME280;27623;51.966;4.602;2022-10-26T03:25:50;64563.78;;;12.38;100.00
41636;BME280;27623;51.966;4.602;2022-10-26T03:28:15;64524.38;;;12.30;100.00
41636;BME280;27623;51.966;4.602;2022-10-26T03:30:41;64589.69;;;12.36;100.00
41636;BME280;27623;51.966;4.602;2022-10-26T03:33:07;64554.66;;;12.32;100.00
41636;BME280;27623;51.966;4.602;2022-10-26T03:35:32;64545.72;;;12.35;100.00
41636;BME280;27623;51.966;4.602;2022-10-26T03:37:58;64580.75;;;12.39;100.00
41636;BME280;27623;51.966;4.602;2022-10-26T03:40:23;64593.53;;;12.39;100.00
41636;BME280;27623;51.966;4.602;2022-10-26T03:42:49;64551.91;;;12.44;100.00
41636;BME280;27623;51.966;4.602;2022-10-26T03:45:14;64567.44;;;12.39;100.00
41636;BME280;27623;51.966;4.602;2022-10-26T03:47:47;64566.47;;;12.48;100.00
41636;BME280;27623;51.966;4.602;2022-10-26T03:50:14;64532.03;;;12.30;100.00
41636;BME280;27623;51.966;4.602;2022-10-26T03:52:40;64536.81;;;12.25;100.00
41636;BME280;27623;51.966;4.602;2022-10-26T03:55:06;64574.53;;;12.46;100.00
41636;BME280;27623;51.966;4.602;2022-10-26T03:57:32;64548.63;;;12.33;100.00
41636;BME280;27623;51.966;4.602;2022-10-26T03:59:57;64551.91;;;12.36;100.00
41636;BME280;27623;51.966;4.602;2022-10-26T04:02:23;64563.97;;;12.26;100.00
41636;BME280;27623;51.966;4.602;2022-10-26T04:04:49;64568.38;;;12.23;100.00
41636;BME280;27623;51.966;4.602;2022-10-26T04:07:14;64560.72;;;12.23;100.00
41636;BME280;27623;51.966;4.602;2022-10-26T04:09:43;64574.56;;;12.38;100.00
41636;BME280;27623;51.966;4.602;2022-10-26T04:12:08;64536.41;;;12.27;100.00
41636;BME280;27623;51.966;4.602;2022-10-26T04:14:34;64583.13;;;12.30;100.00
41636;BME280;27623;51.966;4.602;2022-10-26T04:16:59;64562.53;;;12.27;100.00
41636;BME280;27623;51.966;4.602;2022-10-26T04:19:24;64533.13;;;12.31;100.00
41636;BME280;27623;51.966;4.602;2022-10-26T04:21:50;64577.16;;;12.24;100.00
41636;BME280;27623;51.966;4.602;2022-10-26T04:24:16;64587.50;;;12.34;100.00
41636;BME280;27623;51.966;4.602;2022-10-26T04:26:42;64544.44;;;12.39;100.00
41636;BME280;27623;51.966;4.602;2022-10-26T04:29:09;64604.44;;;12.50;100.00
41636;BME280;27623;51.966;4.602;2022-10-26T04:31:34;64578.34;;;12.56;100.00
41636;BME280;27623;51.966;4.602;2022-10-26T04:34:00;64555.88;;;12.50;100.00
41636;BME280;27623;51.966;4.602;2022-10-26T04:36:25;64574.16;;;12.48;100.00
41636;BME280;27623;51.966;4.602;2022-10-26T04:38:51;64566.88;;;12.46;100.00
41636;BME280;27623;51.966;4.602;2022-10-26T04:41:21;64578.88;;;12.50;100.00
41636;BME280;27623;51.966;4.602;2022-10-26T04:43:46;64566.66;;;12.50;100.00
41636;BME280;27623;51.966;4.602;2022-10-26T04:46:12;64564.47;;;12.48;100.00
41636;BME280;27623;51.966;4.602;2022-10-26T04:48:38;64569.06;;;12.41;100.00
41636;BME280;27623;51.966;4.602;2022-10-26T04:51:04;64585.88;;;12.39;100.00
41636;BME280;27623;51.966;4.602;2022-10-26T04:53:30;64556.28;;;12.41;100.00
41636;BME280;27623;51.966;4.602;2022-10-26T04:55:57;64573.97;;;12.52;100.00
41636;BME280;27623;51.966;4.602;2022-10-26T04:58:22;64587.09;;;12.57;100.00
41636;BME280;27623;51.966;4.602;2022-10-26T05:00:48;64540.22;;;12.45;100.00
41636;BME280;27623;51.966;4.602;2022-10-26T05:03:14;64596.06;;;12.47;100.00
41636;BME280;27623;51.966;4.602;2022-10-26T05:05:39;64557.56;;;12.44;100.00
41636;BME280;27623;51.966;4.602;2022-10-26T05:08:04;64584.59;;;12.36;100.00
41636;BME280;27623;51.966;4.602;2022-10-26T05:10:30;64577.09;;;12.46;100.00
41636;BME280;27623;51.966;4.602;2022-10-26T05:12:57;64571.03;;;12.54;100.00
41636;BME280;27623;51.966;4.602;2022-10-26T05:15:24;64585.44;;;12.63;100.00
41636;BME280;27623;51.966;4.602;2022-10-26T05:18:03;64572.47;;;12.60;100.00
41636;BME280;27623;51.966;4.602;2022-10-26T05:20:32;64565.91;;;12.54;100.00
41636;BME280;27623;51.966;4.602;2022-10-26T05:23:02;64567.97;;;12.47;100.00
41636;BME280;27623;51.966;4.602;2022-10-26T05:25:30;64549.34;;;12.44;100.00
41636;BME280;27623;51.966;4.602;2022-10-26T05:27:58;64611.19;;;12.58;100.00
41636;BME280;27623;51.966;4.602;2022-10-26T05:30:23;64585.09;;;12.51;100.00
41636;BME280;27623;51.966;4.602;2022-10-26T05:32:55;64603.34;;;12.56;100.00
41636;BME280;27623;51.966;4.602;2022-10-26T05:35:21;64584.72;;;12.53;100.00
41636;BME280;27623;51.966;4.602;2022-10-26T05:37:48;64586.91;;;12.55;100.00
41636;BME280;27623;51.966;4.602;2022-10-26T05:40:13;64588.19;;;12.58;100.00
41636;BME280;27623;51.966;4.602;2022-10-26T05:42:40;64619.03;;;12.61;100.00
41636;BME280;27623;51.966;4.602;2022-10-26T05:45:06;64570.53;;;12.47;100.00
41636;BME280;27623;51.966;4.602;2022-10-26T05:47:41;64553.69;;;12.48;100.00
41636;BME280;27623;51.966;4.602;2022-10-26T05:50:08;64572.50;;;12.53;100.00
41636;BME280;27623;51.966;4.602;2022-10-26T05:52:52;64569.38;;;12.53;100.00
41636;BME280;27623;51.966;4.602;2022-10-26T05:55:19;64587.28;;;12.60;100.00
41636;BME280;27623;51.966;4.602;2022-10-26T05:57:45;64590.38;;;12.53;100.00
41636;BME280;27623;51.966;4.602;2022-10-26T06:00:22;64586.38;;;12.47;100.00
41636;BME280;27623;51.966;4.602;2022-10-26T06:05:53;64578.34;;;12.56;100.00
41636;BME280;27623;51.966;4.602;2022-10-26T06:08:20;64553.66;;;12.62;100.00
41636;BME280;27623;51.966;4.602;2022-10-26T06:10:46;64567.38;;;12.60;100.00
41636;BME280;27623;51.966;4.602;2022-10-26T06:13:12;64569.56;;;12.62;100.00
41636;BME280;27623;51.966;4.602;2022-10-26T06:27:39;64593.28;;;12.65;100.00
41636;BME280;27623;51.966;4.602;2022-10-26T06:32:29;64587.63;;;12.58;100.00
41636;BME280;27623;51.966;4.602;2022-10-26T06:37:48;64551.69;;;12.48;100.00
41636;BME280;27623;51.966;4.602;2022-10-26T06:40:15;64584.41;;;12.41;100.00
41636;BME280;27623;51.966;4.602;2022-10-26T06:42:41;64574.16;;;12.48;100.00
41636;BME280;27623;51.966;4.602;2022-10-26T06:45:13;64605.19;;;12.53;100.00
41636;BME280;27623;51.966;4.602;2022-10-26T06:47:48;64569.19;;;12.57;100.00
41636;BME280;27623;51.966;4.602;2022-10-26T06:55:53;64595.47;;;12.67;100.00
41636;BME280;27623;51.966;4.602;2022-10-26T06:58:21;64591.28;;;12.59;100.00
41636;BME280;27623;51.966;4.602;2022-10-26T07:00:49;64614.13;;;12.56;100.00
41636;BME280;27623;51.966;4.602;2022-10-26T07:03:15;64567.75;;;12.51;100.00
41636;BME280;27623;51.966;4.602;2022-10-26T07:05:42;64592.00;;;12.62;100.00
41636;BME280;27623;51.966;4.602;2022-10-26T07:08:09;64585.25;;;12.67;100.00
41636;BME280;27623;51.966;4.602;2022-10-26T07:10:35;64576.50;;;12.59;100.00
41636;BME280;27623;51.966;4.602;2022-10-26T07:13:04;64625.44;;;12.50;100.00
41636;BME280;27623;51.966;4.602;2022-10-26T07:15:29;64563.72;;;12.52;100.00
41636;BME280;27623;51.966;4.602;2022-10-26T07:17:57;64581.06;;;12.59;100.00
41636;BME280;27623;51.966;4.602;2022-10-26T07:20:22;64617.56;;;12.62;100.00
41636;BME280;27623;51.966;4.602;2022-10-26T07:22:53;64608.41;;;12.70;100.00
41636;BME280;27623;51.966;4.602;2022-10-26T07:25:19;64601.47;;;12.73;100.00
41636;BME280;27623;51.966;4.602;2022-10-26T07:27:44;64611.13;;;12.80;100.00
41636;BME280;27623;51.966;4.602;2022-10-26T07:30:10;64600.00;;;12.81;100.00
41636;BME280;27623;51.966;4.602;2022-10-26T07:32:36;64622.09;;;12.83;100.00
41636;BME280;27623;51.966;4.602;2022-10-26T07:35:01;64586.41;;;12.92;100.00
41636;BME280;27623;51.966;4.602;2022-10-26T07:37:27;64631.19;;;12.96;100.00
41636;BME280;27623;51.966;4.602;2022-10-26T07:39:52;64647.97;;;13.02;100.00
41636;BME280;27623;51.966;4.602;2022-10-26T07:42:18;64664.56;;;13.13;100.00
41636;BME280;27623;51.966;4.602;2022-10-26T07:44:44;64688.16;;;13.20;100.00
41636;BME280;27623;51.966;4.602;2022-10-26T07:47:10;64665.66;;;13.21;100.00
41636;BME280;27623;51.966;4.602;2022-10-26T07:49:35;64676.81;;;13.26;100.00
41636;BME280;27623;51.966;4.602;2022-10-26T07:52:01;64689.22;;;13.28;100.00
41636;BME280;27623;51.966;4.602;2022-10-26T07:54:26;64684.78;;;13.46;100.00
41636;BME280;27623;51.966;4.602;2022-10-26T07:56:51;64707.97;;;13.55;100.00
41636;BME280;27623;51.966;4.602;2022-10-26T07:59:17;64708.69;;;13.58;100.00
41636;BME280;27623;51.966;4.602;2022-10-26T08:01:43;64723.84;;;13.70;100.00
41636;BME280;27623;51.966;4.602;2022-10-26T08:04:08;64726.38;;;13.77;100.00
41636;BME280;27623;51.966;4.602;2022-10-26T08:06:34;64725.81;;;13.76;100.00
41636;BME280;27623;51.966;4.602;2022-10-26T08:09:00;64718.97;;;13.96;100.00
41636;BME280;27623;51.966;4.602;2022-10-26T08:11:25;64798.94;;;14.04;100.00
41636;BME280;27623;51.966;4.602;2022-10-26T08:13:52;64797.81;;;14.10;100.00
41636;BME280;27623;51.966;4.602;2022-10-26T08:16:17;64772.53;;;14.15;100.00
41636;BME280;27623;51.966;4.602;2022-10-26T08:18:43;64840.25;;;14.23;100.00
41636;BME280;27623;51.966;4.602;2022-10-26T08:21:10;64807.63;;;14.26;100.00
41636;BME280;27623;51.966;4.602;2022-10-26T08:23:57;64778.47;;;14.35;100.00
41636;BME280;27623;51.966;4.602;2022-10-26T08:26:23;64802.09;;;14.42;100.00
41636;BME280;27623;51.966;4.602;2022-10-26T08:28:48;64785.78;;;14.44;100.00
41636;BME280;27623;51.966;4.602;2022-10-26T08:31:14;64831.16;;;14.55;100.00
41636;BME280;27623;51.966;4.602;2022-10-26T08:33:40;64840.91;;;14.55;100.00
41636;BME280;27623;51.966;4.602;2022-10-26T08:36:06;64856.97;;;14.65;100.00
41636;BME280;27623;51.966;4.602;2022-10-26T08:38:33;64855.47;;;14.73;100.00
41636;BME280;27623;51.966;4.602;2022-10-26T08:41:05;64906.72;;;14.94;100.00
41636;BME280;27623;51.966;4.602;2022-10-26T08:46:16;64907.56;;;15.14;100.00
41636;BME280;27623;51.966;4.602;2022-10-26T08:48:53;64948.75;;;15.24;100.00
41636;BME280;27623;51.966;4.602;2022-10-26T08:51:26;64916.13;;;15.27;100.00
41636;BME280;27623;51.966;4.602;2022-10-26T08:53:58;64921.41;;;15.36;100.00
41636;BME280;27623;51.966;4.602;2022-10-26T08:56:28;64929.06;;;15.43;100.00
41636;BME280;27623;51.966;4.602;2022-10-26T08:59:04;64920.09;;;15.40;100.00
41636;BME280;27623;51.966;4.602;2022-10-26T09:01:33;64937.47;;;15.46;100.00
41636;BME280;27623;51.966;4.602;2022-10-26T09:04:01;64945.38;;;15.42;100.00
41636;BME280;27623;51.966;4.602;2022-10-26T09:07:18;64945.16;;;15.54;100.00
41636;BME280;27623;51.966;4.602;2022-10-26T09:12:51;64922.28;;;15.42;100.00
41636;BME280;27623;51.966;4.602;2022-10-26T09:15:39;64926.84;;;15.48;100.00
41636;BME280;27623;51.966;4.602;2022-10-26T09:18:20;64966.97;;;15.64;100.00
41636;BME280;27623;51.966;4.602;2022-10-26T09:20:53;64977.53;;;15.84;100.00
41636;BME280;27623;51.966;4.602;2022-10-26T09:26:13;65008.84;;;15.98;100.00
41636;BME280;27623;51.966;4.602;2022-10-26T09:28:40;65008.59;;;16.17;100.00
41636;BME280;27623;51.966;4.602;2022-10-26T09:31:12;65025.28;;;16.21;100.00
41636;BME280;27623;51.966;4.602;2022-10-26T09:33:39;65037.31;;;16.39;100.00
41636;BME280;27623;51.966;4.602;2022-10-26T09:36:18;65092.97;;;16.40;100.00
41636;BME280;27623;51.966;4.602;2022-10-26T09:39:17;65082.06;;;16.54;100.00
41636;BME280;27623;51.966;4.602;2022-10-26T09:42:02;65096.53;;;16.70;100.00
41636;BME280;27623;51.966;4.602;2022-10-26T09:44:41;65130.31;;;16.82;100.00
41636;BME280;27623;51.966;4.602;2022-10-26T09:47:32;65125.81;;;16.92;100.00
41636;BME280;27623;51.966;4.602;2022-10-26T09:50:26;65148.59;;;17.01;100.00
41636;BME280;27623;51.966;4.602;2022-10-26T09:52:53;65145.28;;;16.98;100.00
41636;BME280;27623;51.966;4.602;2022-10-26T09:55:18;65128.94;;;16.93;100.00
41636;BME280;27623;51.966;4.602;2022-10-26T09:57:48;65126.41;;;16.86;100.00
41636;BME280;27623;51.966;4.602;2022-10-26T10:00:16;65131.56;;;16.86;100.00
41636;BME280;27623;51.966;4.602;2022-10-26T10:02:43;65117.94;;;16.90;100.00
41636;BME280;27623;51.966;4.602;2022-10-26T10:10:35;65145.09;;;17.03;100.00
41636;BME280;27623;51.966;4.602;2022-10-26T10:13:14;65108.72;;;16.91;100.00
41636;BME280;27623;51.966;4.602;2022-10-26T10:15:39;65108.75;;;16.83;100.00
41636;BME280;27623;51.966;4.602;2022-10-26T10:18:20;65096.31;;;16.74;100.00
41636;BME280;27623;51.966;4.602;2022-10-26T10:20:52;65104.03;;;16.74;100.00
41636;BME280;27623;51.966;4.602;2022-10-26T10:23:48;65077.16;;;16.80;100.00
41636;BME280;27623;51.966;4.602;2022-10-26T10:26:16;65062.72;;;16.65;100.00
41636;BME280;27623;51.966;4.602;2022-10-26T10:28:41;65062.94;;;16.60;100.00
41636;BME280;27623;51.966;4.602;2022-10-26T10:31:19;65067.19;;;16.55;100.00
41636;BME280;27623;51.966;4.602;2022-10-26T10:33:48;65078.19;;;16.58;100.00
41636;BME280;27623;51.966;4.602;2022-10-26T10:36:19;65064.59;;;16.55;100.00
41636;BME280;27623;51.966;4.602;2022-10-26T10:38:47;65092.13;;;16.66;100.00
41636;BME280;27623;51.966;4.602;2022-10-26T10:43:48;65075.72;;;16.74;100.00
41636;BME280;27623;51.966;4.602;2022-10-26T10:46:21;65098.16;;;16.71;100.00
41636;BME280;27623;51.966;4.602;2022-10-26T10:48:52;65130.34;;;16.75;100.00
41636;BME280;27623;51.966;4.602;2022-10-26T10:51:20;65104.00;;;16.81;100.00
41636;BME280;27623;51.966;4.602;2022-10-26T10:53:50;65130.78;;;16.97;100.00
41636;BME280;27623;51.966;4.602;2022-10-26T10:56:42;65184.69;;;17.25;100.00
41636;BME280;27623;51.966;4.602;2022-10-26T11:02:16;65286.13;;;18.07;100.00
41636;BME280;27623;51.966;4.602;2022-10-26T11:07:19;65289.38;;;18.17;100.00
41636;BME280;27623;51.966;4.602;2022-10-26T11:09:47;65308.25;;;18.37;100.00
41636;BME280;27623;51.966;4.602;2022-10-26T11:12:28;65302.72;;;18.32;100.00
41636;BME280;27623;51.966;4.602;2022-10-26T11:15:11;65296.53;;;18.24;100.00
41636;BME280;27623;51.966;4.602;2022-10-26T11:18:04;65322.28;;;18.31;100.00
41636;BME280;27623;51.966;4.602;2022-10-26T11:20:34;65311.63;;;18.57;100.00
41636;BME280;27623;51.966;4.602;2022-10-26T11:23:08;65326.69;;;18.35;100.00
41636;BME280;27623;51.966;4.602;2022-10-26T11:25:54;65330.53;;;18.38;100.00
41636;BME280;27623;51.966;4.602;2022-10-26T11:31:32;65318.16;;;18.46;100.00
41636;BME280;27623;51.966;4.602;2022-10-26T11:36:34;65340.78;;;18.52;100.00
41636;BME280;27623;51.966;4.602;2022-10-26T11:39:19;65331.38;;;18.51;100.00
41636;BME280;27623;51.966;4.602;2022-10-26T11:41:55;65339.47;;;18.56;100.00
41636;BME280;27623;51.966;4.602;2022-10-26T11:44:32;65317.09;;;18.38;100.00
41636;BME280;27623;51.966;4.602;2022-10-26T11:47:08;65313.56;;;18.39;100.00
41636;BME280;27623;51.966;4.602;2022-10-26T11:50:00;65314.50;;;18.38;100.00
41636;BME280;27623;51.966;4.602;2022-10-26T11:52:34;65300.94;;;18.28;100.00
41636;BME280;27623;51.966;4.602;2022-10-26T11:55:02;65313.97;;;18.30;100.00
41636;BME280;27623;51.966;4.602;2022-10-26T11:57:33;65242.56;;;18.19;100.00
41636;BME280;27623;51.966;4.602;2022-10-26T12:00:13;65346.28;;;18.58;100.00
41636;BME280;27623;51.966;4.602;2022-10-26T12:03:02;65336.78;;;18.77;100.00
41636;BME280;27623;51.966;4.602;2022-10-26T12:05:51;65356.38;;;18.69;100.00
41636;BME280;27623;51.966;4.602;2022-10-26T12:08:40;65359.97;;;18.84;100.00
41636;BME280;27623;51.966;4.602;2022-10-26T12:11:42;65375.84;;;18.82;100.00
41636;BME280;27623;51.966;4.602;2022-10-26T12:14:10;65451.53;;;19.40;100.00
41636;BME280;27623;51.966;4.602;2022-10-26T12:22:10;65630.66;;;20.81;100.00
41636;BME280;27623;51.966;4.602;2022-10-26T12:24:42;65593.00;;;20.44;100.00
41636;BME280;27623;51.966;4.602;2022-10-26T12:32:47;65661.84;;;21.22;94.98
41636;BME280;27623;51.966;4.602;2022-10-26T12:35:42;65714.22;;;21.53;94.53
41636;BME280;27623;51.966;4.602;2022-10-26T12:41:28;65712.69;;;21.38;95.62
41636;BME280;27623;51.966;4.602;2022-10-26T12:44:00;65708.31;;;21.26;95.85
41636;BME280;27623;51.966;4.602;2022-10-26T12:48:53;65759.91;;;21.62;94.22
41636;BME280;27623;51.966;4.602;2022-10-26T12:56:50;65838.34;;;22.41;91.29
41636;BME280;27623;51.966;4.602;2022-10-26T13:07:34;65795.97;;;22.05;91.23
41636;BME280;27623;51.966;4.602;2022-10-26T13:10:03;65874.72;;;22.65;87.77
41636;BME280;27623;51.966;4.602;2022-10-26T13:12:37;65795.66;;;22.23;88.01
41636;BME280;27623;51.966;4.602;2022-10-26T13:15:19;65853.81;;;22.32;87.33
41636;BME280;27623;51.966;4.602;2022-10-26T13:20:30;65778.69;;;22.10;88.96
41636;BME280;27623;51.966;4.602;2022-10-26T13:22:56;65864.88;;;22.42;87.63
41636;BME280;27623;51.966;4.602;2022-10-26T13:25:31;65835.47;;;22.29;87.36
41636;BME280;27623;51.966;4.602;2022-10-26T13:28:04;65836.66;;;22.23;89.10
41636;BME280;27623;51.966;4.602;2022-10-26T13:32:59;65774.22;;;21.82;86.43
41636;BME280;27623;51.966;4.602;2022-10-26T13:35:26;65773.81;;;21.91;87.10
41636;BME280;27623;51.966;4.602;2022-10-26T13:37:55;65776.72;;;21.97;87.93
41636;BME280;27623;51.966;4.602;2022-10-26T13:40:26;65816.84;;;22.14;87.17
41636;BME280;27623;51.966;4.602;2022-10-26T13:43:02;65721.63;;;21.55;88.09
41636;BME280;27623;51.966;4.602;2022-10-26T13:45:30;65800.16;;;22.13;84.59
41636;BME280;27623;51.966;4.602;2022-10-26T13:48:19;65775.34;;;21.83;86.71
41636;BME280;27623;51.966;4.602;2022-10-26T13:50:56;65726.25;;;21.55;89.35
41636;BME280;27623;51.966;4.602;2022-10-26T13:53:37;65766.78;;;21.87;89.03
41636;BME280;27623;51.966;4.602;2022-10-26T13:56:26;65695.47;;;21.36;89.52
41636;BME280;27623;51.966;4.602;2022-10-26T13:58:59;65710.13;;;21.78;90.69
41636;BME280;27623;51.966;4.602;2022-10-26T14:01:26;65693.81;;;21.58;91.08
41636;BME280;27623;51.966;4.602;2022-10-26T14:03:53;65671.84;;;21.24;92.56
41636;BME280;27623;51.966;4.602;2022-10-26T14:08:55;65595.06;;;20.68;93.02
41636;BME280;27623;51.966;4.602;2022-10-26T14:11:29;65595.25;;;20.63;95.33
41636;BME280;27623;51.966;4.602;2022-10-26T14:13:58;65576.47;;;20.53;96.75
41636;BME280;27623;51.966;4.602;2022-10-26T14:16:26;65543.41;;;20.46;98.99
41636;BME280;27623;51.966;4.602;2022-10-26T14:18:53;65562.69;;;20.40;98.83
41636;BME280;27623;51.966;4.602;2022-10-26T14:21:20;65571.19;;;20.43;97.74
41636;BME280;27623;51.966;4.602;2022-10-26T14:23:49;65563.44;;;20.36;98.56
41636;BME280;27623;51.966;4.602;2022-10-26T14:26:42;65534.41;;;20.12;100.00
41636;BME280;27623;51.966;4.602;2022-10-26T14:29:36;65525.22;;;20.30;99.07
41636;BME280;27623;51.966;4.602;2022-10-26T14:32:18;65537.09;;;20.52;97.09
41636;BME280;27623;51.966;4.602;2022-10-26T14:34:53;65621.22;;;20.80;96.93
41636;BME280;27623;51.966;4.602;2022-10-26T14:40:16;65579.44;;;20.51;97.20
41636;BME280;27623;51.966;4.602;2022-10-26T14:42:43;65565.34;;;20.26;98.74
41636;BME280;27623;51.966;4.602;2022-10-26T14:47:51;65507.84;;;20.02;100.00
41636;BME280;27623;51.966;4.602;2022-10-26T14:50:22;65479.75;;;20.00;100.00
41636;BME280;27623;51.966;4.602;2022-10-26T14:52:50;65489.50;;;19.82;100.00
41636;BME280;27623;51.966;4.602;2022-10-26T14:55:17;65490.22;;;19.85;100.00
41636;BME280;27623;51.966;4.602;2022-10-26T14:57:45;65478.97;;;19.80;100.00
41636;BME280;27623;51.966;4.602;2022-10-26T15:00:24;65460.72;;;19.77;100.00
41636;BME280;27623;51.966;4.602;2022-10-26T15:02:54;65501.53;;;19.77;100.00
41636;BME280;27623;51.966;4.602;2022-10-26T15:07:50;65474.91;;;19.81;100.00